<?xml version="1.0" encoding="UTF-8" standalone="no" ?>
<gpx xmlns="http://www.topografix.com/GPX/1/1" xmlns:xsi="http://www.w3.org/2001/XMLSchema-instance" xsi:schemaLocation="http://www.topografix.com/GPX/1/1 http://www.topografix.com/GPX/1/1/gpx.xsd" version="1.1" creator="VisuGPX - https://www.visugpx.com">
  <metadata>
    <name>Rando trail - n°4 Bleu - Aigrefouin sur TraceDeTrail.fr</name>
  </metadata>
  <trk>
    <name><![CDATA[Rando trail - n°4 Bleu - Aigrefouin sur TraceDeTrail.fr]]></name>
    <trkseg>
      <trkpt lat="48.69698" lon="2.159">
        <ele>57</ele>
        <time>2000-01-01T00:19:27.000Z</time>
      </trkpt>
      <trkpt lat="48.69714" lon="2.15902">
        <ele>61.8</ele>
        <time>2000-01-01T00:19:37.000Z</time>
      </trkpt>
      <trkpt lat="48.69764" lon="2.15858">
        <ele>51</ele>
        <time>2000-01-01T00:19:47.000Z</time>
      </trkpt>
      <trkpt lat="48.69789" lon="2.15838">
        <ele>51</ele>
        <time>2000-01-01T00:19:57.000Z</time>
      </trkpt>
      <trkpt lat="48.69816" lon="2.15805">
        <ele>51</ele>
        <time>2000-01-01T00:20:07.000Z</time>
      </trkpt>
      <trkpt lat="48.69838" lon="2.15801">
        <ele>52</ele>
        <time>2000-01-01T00:20:17.000Z</time>
      </trkpt>
      <trkpt lat="48.69866" lon="2.15786">
        <ele>54</ele>
        <time>2000-01-01T00:20:27.000Z</time>
      </trkpt>
      <trkpt lat="48.69898" lon="2.15772">
        <ele>56</ele>
        <time>2000-01-01T00:20:37.000Z</time>
      </trkpt>
      <trkpt lat="48.6992" lon="2.15755">
        <ele>56</ele>
        <time>2000-01-01T00:20:47.000Z</time>
      </trkpt>
      <trkpt lat="48.69954" lon="2.15723">
        <ele>56</ele>
        <time>2000-01-01T00:20:57.000Z</time>
      </trkpt>
      <trkpt lat="48.69971" lon="2.157">
        <ele>57</ele>
        <time>2000-01-01T00:21:07.000Z</time>
      </trkpt>
      <trkpt lat="48.6999" lon="2.15675">
        <ele>58</ele>
        <time>2000-01-01T00:21:17.000Z</time>
      </trkpt>
      <trkpt lat="48.7002" lon="2.15664">
        <ele>59</ele>
        <time>2000-01-01T00:21:27.000Z</time>
      </trkpt>
      <trkpt lat="48.70044" lon="2.15664">
        <ele>60</ele>
        <time>2000-01-01T00:21:37.000Z</time>
      </trkpt>
      <trkpt lat="48.70072" lon="2.15664">
        <ele>61</ele>
        <time>2000-01-01T00:21:47.000Z</time>
      </trkpt>
      <trkpt lat="48.701" lon="2.15669">
        <ele>62</ele>
        <time>2000-01-01T00:21:57.000Z</time>
      </trkpt>
      <trkpt lat="48.70135" lon="2.1568">
        <ele>64</ele>
        <time>2000-01-01T00:22:07.000Z</time>
      </trkpt>
      <trkpt lat="48.70164" lon="2.15695">
        <ele>66</ele>
        <time>2000-01-01T00:22:17.000Z</time>
      </trkpt>
      <trkpt lat="48.70198" lon="2.1572">
        <ele>67</ele>
        <time>2000-01-01T00:22:27.000Z</time>
      </trkpt>
      <trkpt lat="48.70227" lon="2.15727">
        <ele>71</ele>
        <time>2000-01-01T00:22:37.000Z</time>
      </trkpt>
      <trkpt lat="48.7025" lon="2.15712">
        <ele>71</ele>
        <time>2000-01-01T00:22:47.000Z</time>
      </trkpt>
      <trkpt lat="48.70281" lon="2.15691">
        <ele>74</ele>
        <time>2000-01-01T00:22:57.000Z</time>
      </trkpt>
      <trkpt lat="48.7029" lon="2.15729">
        <ele>76</ele>
        <time>2000-01-01T00:23:07.000Z</time>
      </trkpt>
      <trkpt lat="48.70305" lon="2.15789">
        <ele>76</ele>
        <time>2000-01-01T00:23:17.000Z</time>
      </trkpt>
      <trkpt lat="48.70317" lon="2.15783">
        <ele>85.4</ele>
        <time>2000-01-01T00:23:27.000Z</time>
      </trkpt>
      <trkpt lat="48.70326" lon="2.15826">
        <ele>77</ele>
        <time>2000-01-01T00:23:37.000Z</time>
      </trkpt>
      <trkpt lat="48.70335" lon="2.15868">
        <ele>77</ele>
        <time>2000-01-01T00:23:47.000Z</time>
      </trkpt>
      <trkpt lat="48.70344" lon="2.15912">
        <ele>76</ele>
        <time>2000-01-01T00:23:57.000Z</time>
      </trkpt>
      <trkpt lat="48.70373" lon="2.15903">
        <ele>77</ele>
        <time>2000-01-01T00:24:07.000Z</time>
      </trkpt>
      <trkpt lat="48.70396" lon="2.15896">
        <ele>78</ele>
        <time>2000-01-01T00:24:17.000Z</time>
      </trkpt>
      <trkpt lat="48.70424" lon="2.15887">
        <ele>84</ele>
        <time>2000-01-01T00:24:27.000Z</time>
      </trkpt>
      <trkpt lat="48.7044" lon="2.15859">
        <ele>91</ele>
        <time>2000-01-01T00:24:37.000Z</time>
      </trkpt>
      <trkpt lat="48.70463" lon="2.15838">
        <ele>99</ele>
        <time>2000-01-01T00:24:47.000Z</time>
      </trkpt>
      <trkpt lat="48.70447" lon="2.15806">
        <ele>100</ele>
        <time>2000-01-01T00:24:57.000Z</time>
      </trkpt>
      <trkpt lat="48.70454" lon="2.15767">
        <ele>102</ele>
        <time>2000-01-01T00:25:07.000Z</time>
      </trkpt>
      <trkpt lat="48.70451" lon="2.15739">
        <ele>103</ele>
        <time>2000-01-01T00:25:17.000Z</time>
      </trkpt>
      <trkpt lat="48.7046" lon="2.15741">
        <ele>105.4</ele>
        <time>2000-01-01T00:25:27.000Z</time>
      </trkpt>
      <trkpt lat="48.70479" lon="2.15768">
        <ele>105</ele>
        <time>2000-01-01T00:25:37.000Z</time>
      </trkpt>
      <trkpt lat="48.70504" lon="2.15809">
        <ele>112</ele>
        <time>2000-01-01T00:25:47.000Z</time>
      </trkpt>
      <trkpt lat="48.70504" lon="2.1576">
        <ele>118</ele>
        <time>2000-01-01T00:25:57.000Z</time>
      </trkpt>
      <trkpt lat="48.70502" lon="2.15714">
        <ele>123</ele>
        <time>2000-01-01T00:26:07.000Z</time>
      </trkpt>
      <trkpt lat="48.70499" lon="2.15656">
        <ele>125</ele>
        <time>2000-01-01T00:26:17.000Z</time>
      </trkpt>
      <trkpt lat="48.70482" lon="2.15633">
        <ele>124</ele>
        <time>2000-01-01T00:26:27.000Z</time>
      </trkpt>
      <trkpt lat="48.70464" lon="2.15609">
        <ele>125</ele>
        <time>2000-01-01T00:26:37.000Z</time>
      </trkpt>
      <trkpt lat="48.70448" lon="2.15584">
        <ele>122</ele>
        <time>2000-01-01T00:26:47.000Z</time>
      </trkpt>
      <trkpt lat="48.7043" lon="2.15556">
        <ele>119</ele>
        <time>2000-01-01T00:26:57.000Z</time>
      </trkpt>
      <trkpt lat="48.70401" lon="2.15533">
        <ele>112</ele>
        <time>2000-01-01T00:27:07.000Z</time>
      </trkpt>
      <trkpt lat="48.70371" lon="2.1551">
        <ele>107</ele>
        <time>2000-01-01T00:27:17.000Z</time>
      </trkpt>
      <trkpt lat="48.70338" lon="2.15482">
        <ele>102</ele>
        <time>2000-01-01T00:27:27.000Z</time>
      </trkpt>
      <trkpt lat="48.70308" lon="2.15459">
        <ele>98</ele>
        <time>2000-01-01T00:27:37.000Z</time>
      </trkpt>
      <trkpt lat="48.70287" lon="2.15445">
        <ele>93</ele>
        <time>2000-01-01T00:27:47.000Z</time>
      </trkpt>
      <trkpt lat="48.70258" lon="2.15417">
        <ele>91</ele>
        <time>2000-01-01T00:27:57.000Z</time>
      </trkpt>
      <trkpt lat="48.70244" lon="2.15371">
        <ele>89</ele>
        <time>2000-01-01T00:28:07.000Z</time>
      </trkpt>
      <trkpt lat="48.70239" lon="2.15353">
        <ele>89.8</ele>
        <time>2000-01-01T00:28:17.000Z</time>
      </trkpt>
      <trkpt lat="48.70238" lon="2.15332">
        <ele>89</ele>
        <time>2000-01-01T00:28:27.000Z</time>
      </trkpt>
      <trkpt lat="48.70236" lon="2.15283">
        <ele>89</ele>
        <time>2000-01-01T00:28:37.000Z</time>
      </trkpt>
      <trkpt lat="48.70234" lon="2.15234">
        <ele>85</ele>
        <time>2000-01-01T00:28:47.000Z</time>
      </trkpt>
      <trkpt lat="48.70233" lon="2.15197">
        <ele>83</ele>
        <time>2000-01-01T00:28:57.000Z</time>
      </trkpt>
      <trkpt lat="48.70231" lon="2.15151">
        <ele>83</ele>
        <time>2000-01-01T00:29:07.000Z</time>
      </trkpt>
      <trkpt lat="48.70231" lon="2.15102">
        <ele>82</ele>
        <time>2000-01-01T00:29:17.000Z</time>
      </trkpt>
      <trkpt lat="48.70231" lon="2.15052">
        <ele>82</ele>
        <time>2000-01-01T00:29:27.000Z</time>
      </trkpt>
      <trkpt lat="48.70231" lon="2.15014">
        <ele>82</ele>
        <time>2000-01-01T00:29:37.000Z</time>
      </trkpt>
      <trkpt lat="48.70231" lon="2.14964">
        <ele>82</ele>
        <time>2000-01-01T00:29:47.000Z</time>
      </trkpt>
      <trkpt lat="48.70233" lon="2.14898">
        <ele>82</ele>
        <time>2000-01-01T00:29:57.000Z</time>
      </trkpt>
      <trkpt lat="48.70234" lon="2.1484">
        <ele>79</ele>
        <time>2000-01-01T00:30:07.000Z</time>
      </trkpt>
      <trkpt lat="48.7023" lon="2.14779">
        <ele>77</ele>
        <time>2000-01-01T00:30:17.000Z</time>
      </trkpt>
      <trkpt lat="48.70228" lon="2.14743">
        <ele>76</ele>
        <time>2000-01-01T00:30:27.000Z</time>
      </trkpt>
      <trkpt lat="48.70226" lon="2.14702">
        <ele>76</ele>
        <time>2000-01-01T00:30:37.000Z</time>
      </trkpt>
      <trkpt lat="48.70252" lon="2.14705">
        <ele>76</ele>
        <time>2000-01-01T00:30:47.000Z</time>
      </trkpt>
      <trkpt lat="48.7029" lon="2.14706">
        <ele>78</ele>
        <time>2000-01-01T00:30:57.000Z</time>
      </trkpt>
      <trkpt lat="48.70316" lon="2.14711">
        <ele>81</ele>
        <time>2000-01-01T00:31:07.000Z</time>
      </trkpt>
      <trkpt lat="48.7036" lon="2.14715">
        <ele>84</ele>
        <time>2000-01-01T00:31:17.000Z</time>
      </trkpt>
      <trkpt lat="48.7036" lon="2.1467">
        <ele>94</ele>
        <time>2000-01-01T00:31:27.000Z</time>
      </trkpt>
      <trkpt lat="48.704" lon="2.14674">
        <ele>96</ele>
        <time>2000-01-01T00:31:37.000Z</time>
      </trkpt>
      <trkpt lat="48.70435" lon="2.1468">
        <ele>104</ele>
        <time>2000-01-01T00:31:47.000Z</time>
      </trkpt>
      <trkpt lat="48.70467" lon="2.14682">
        <ele>127</ele>
        <time>2000-01-01T00:31:57.000Z</time>
      </trkpt>
      <trkpt lat="48.70503" lon="2.14688">
        <ele>137</ele>
        <time>2000-01-01T00:32:07.000Z</time>
      </trkpt>
      <trkpt lat="48.70528" lon="2.1469">
        <ele>148</ele>
        <time>2000-01-01T00:32:17.000Z</time>
      </trkpt>
      <trkpt lat="48.70558" lon="2.14692">
        <ele>157</ele>
        <time>2000-01-01T00:32:27.000Z</time>
      </trkpt>
      <trkpt lat="48.70564" lon="2.14644">
        <ele>159</ele>
        <time>2000-01-01T00:32:37.000Z</time>
      </trkpt>
      <trkpt lat="48.7057" lon="2.14595">
        <ele>162</ele>
        <time>2000-01-01T00:32:47.000Z</time>
      </trkpt>
      <trkpt lat="48.70575" lon="2.14558">
        <ele>162</ele>
        <time>2000-01-01T00:32:57.000Z</time>
      </trkpt>
      <trkpt lat="48.70581" lon="2.14513">
        <ele>162</ele>
        <time>2000-01-01T00:33:07.000Z</time>
      </trkpt>
      <trkpt lat="48.70587" lon="2.14467">
        <ele>161</ele>
        <time>2000-01-01T00:33:17.000Z</time>
      </trkpt>
      <trkpt lat="48.70594" lon="2.14422">
        <ele>160</ele>
        <time>2000-01-01T00:33:27.000Z</time>
      </trkpt>
      <trkpt lat="48.70603" lon="2.14362">
        <ele>159</ele>
        <time>2000-01-01T00:33:37.000Z</time>
      </trkpt>
      <trkpt lat="48.70605" lon="2.14316">
        <ele>158</ele>
        <time>2000-01-01T00:33:47.000Z</time>
      </trkpt>
      <trkpt lat="48.70606" lon="2.1427">
        <ele>156</ele>
        <time>2000-01-01T00:33:57.000Z</time>
      </trkpt>
      <trkpt lat="48.70608" lon="2.14214">
        <ele>156</ele>
        <time>2000-01-01T00:34:07.000Z</time>
      </trkpt>
      <trkpt lat="48.70607" lon="2.14164">
        <ele>155</ele>
        <time>2000-01-01T00:34:17.000Z</time>
      </trkpt>
      <trkpt lat="48.70606" lon="2.14114">
        <ele>155</ele>
        <time>2000-01-01T00:34:27.000Z</time>
      </trkpt>
      <trkpt lat="48.70605" lon="2.14075">
        <ele>155</ele>
        <time>2000-01-01T00:34:37.000Z</time>
      </trkpt>
      <trkpt lat="48.70604" lon="2.14019">
        <ele>155</ele>
        <time>2000-01-01T00:34:47.000Z</time>
      </trkpt>
      <trkpt lat="48.70604" lon="2.1397">
        <ele>157</ele>
        <time>2000-01-01T00:34:57.000Z</time>
      </trkpt>
      <trkpt lat="48.70603" lon="2.1392">
        <ele>159</ele>
        <time>2000-01-01T00:35:07.000Z</time>
      </trkpt>
      <trkpt lat="48.70602" lon="2.13882">
        <ele>161</ele>
        <time>2000-01-01T00:35:17.000Z</time>
      </trkpt>
      <trkpt lat="48.70602" lon="2.13834">
        <ele>161</ele>
        <time>2000-01-01T00:35:27.000Z</time>
      </trkpt>
      <trkpt lat="48.70626" lon="2.13855">
        <ele>161</ele>
        <time>2000-01-01T00:35:37.000Z</time>
      </trkpt>
      <trkpt lat="48.70659" lon="2.13882">
        <ele>165</ele>
        <time>2000-01-01T00:35:47.000Z</time>
      </trkpt>
      <trkpt lat="48.70668" lon="2.13838">
        <ele>166</ele>
        <time>2000-01-01T00:35:57.000Z</time>
      </trkpt>
      <trkpt lat="48.70679" lon="2.13784">
        <ele>165</ele>
        <time>2000-01-01T00:36:07.000Z</time>
      </trkpt>
      <trkpt lat="48.70684" lon="2.13748">
        <ele>164</ele>
        <time>2000-01-01T00:36:17.000Z</time>
      </trkpt>
      <trkpt lat="48.70689" lon="2.13708">
        <ele>162</ele>
        <time>2000-01-01T00:36:27.000Z</time>
      </trkpt>
      <trkpt lat="48.70713" lon="2.13715">
        <ele>160</ele>
        <time>2000-01-01T00:36:37.000Z</time>
      </trkpt>
      <trkpt lat="48.70741" lon="2.13723">
        <ele>159</ele>
        <time>2000-01-01T00:36:47.000Z</time>
      </trkpt>
      <trkpt lat="48.70769" lon="2.13716">
        <ele>157</ele>
        <time>2000-01-01T00:36:57.000Z</time>
      </trkpt>
      <trkpt lat="48.70791" lon="2.1371">
        <ele>156</ele>
        <time>2000-01-01T00:37:07.000Z</time>
      </trkpt>
      <trkpt lat="48.70813" lon="2.13705">
        <ele>156</ele>
        <time>2000-01-01T00:37:17.000Z</time>
      </trkpt>
      <trkpt lat="48.70841" lon="2.13689">
        <ele>154</ele>
        <time>2000-01-01T00:37:27.000Z</time>
      </trkpt>
      <trkpt lat="48.7087" lon="2.13672">
        <ele>154</ele>
        <time>2000-01-01T00:37:37.000Z</time>
      </trkpt>
      <trkpt lat="48.70903" lon="2.13653">
        <ele>154</ele>
        <time>2000-01-01T00:37:47.000Z</time>
      </trkpt>
      <trkpt lat="48.70918" lon="2.13628">
        <ele>153</ele>
        <time>2000-01-01T00:37:57.000Z</time>
      </trkpt>
      <trkpt lat="48.7089" lon="2.13587">
        <ele>153</ele>
        <time>2000-01-01T00:38:07.000Z</time>
      </trkpt>
      <trkpt lat="48.709" lon="2.13537">
        <ele>153</ele>
        <time>2000-01-01T00:38:17.000Z</time>
      </trkpt>
      <trkpt lat="48.70909" lon="2.13487">
        <ele>153</ele>
        <time>2000-01-01T00:38:27.000Z</time>
      </trkpt>
      <trkpt lat="48.70919" lon="2.13436">
        <ele>154</ele>
        <time>2000-01-01T00:38:37.000Z</time>
      </trkpt>
      <trkpt lat="48.70926" lon="2.13401">
        <ele>154</ele>
        <time>2000-01-01T00:38:47.000Z</time>
      </trkpt>
      <trkpt lat="48.70933" lon="2.13362">
        <ele>154</ele>
        <time>2000-01-01T00:38:57.000Z</time>
      </trkpt>
      <trkpt lat="48.7094" lon="2.13319">
        <ele>153</ele>
        <time>2000-01-01T00:39:07.000Z</time>
      </trkpt>
      <trkpt lat="48.70946" lon="2.13282">
        <ele>153</ele>
        <time>2000-01-01T00:39:17.000Z</time>
      </trkpt>
      <trkpt lat="48.70955" lon="2.13232">
        <ele>151</ele>
        <time>2000-01-01T00:39:27.000Z</time>
      </trkpt>
      <trkpt lat="48.70973" lon="2.13194">
        <ele>149</ele>
        <time>2000-01-01T00:39:37.000Z</time>
      </trkpt>
      <trkpt lat="48.70991" lon="2.13156">
        <ele>148</ele>
        <time>2000-01-01T00:39:47.000Z</time>
      </trkpt>
      <trkpt lat="48.71016" lon="2.13122">
        <ele>147</ele>
        <time>2000-01-01T00:39:57.000Z</time>
      </trkpt>
      <trkpt lat="48.71041" lon="2.13084">
        <ele>146</ele>
        <time>2000-01-01T00:40:07.000Z</time>
      </trkpt>
      <trkpt lat="48.71069" lon="2.13039">
        <ele>144</ele>
        <time>2000-01-01T00:40:17.000Z</time>
      </trkpt>
      <trkpt lat="48.71087" lon="2.13011">
        <ele>144</ele>
        <time>2000-01-01T00:40:27.000Z</time>
      </trkpt>
      <trkpt lat="48.71111" lon="2.12973">
        <ele>144</ele>
        <time>2000-01-01T00:40:37.000Z</time>
      </trkpt>
      <trkpt lat="48.71131" lon="2.12967">
        <ele>145</ele>
        <time>2000-01-01T00:40:47.000Z</time>
      </trkpt>
      <trkpt lat="48.71161" lon="2.12963">
        <ele>148</ele>
        <time>2000-01-01T00:40:57.000Z</time>
      </trkpt>
      <trkpt lat="48.71181" lon="2.12962">
        <ele>151</ele>
        <time>2000-01-01T00:41:07.000Z</time>
      </trkpt>
      <trkpt lat="48.71194" lon="2.12974">
        <ele>158</ele>
        <time>2000-01-01T00:41:17.000Z</time>
      </trkpt>
      <trkpt lat="48.71209" lon="2.13011">
        <ele>152</ele>
        <time>2000-01-01T00:41:27.000Z</time>
      </trkpt>
      <trkpt lat="48.71228" lon="2.13038">
        <ele>152</ele>
        <time>2000-01-01T00:41:37.000Z</time>
      </trkpt>
      <trkpt lat="48.71259" lon="2.13036">
        <ele>152</ele>
        <time>2000-01-01T00:41:47.000Z</time>
      </trkpt>
      <trkpt lat="48.7129" lon="2.13035">
        <ele>152</ele>
        <time>2000-01-01T00:41:57.000Z</time>
      </trkpt>
      <trkpt lat="48.71332" lon="2.13033">
        <ele>152</ele>
        <time>2000-01-01T00:42:07.000Z</time>
      </trkpt>
      <trkpt lat="48.71369" lon="2.13033">
        <ele>154</ele>
        <time>2000-01-01T00:42:17.000Z</time>
      </trkpt>
      <trkpt lat="48.71405" lon="2.13032">
        <ele>154</ele>
        <time>2000-01-01T00:42:27.000Z</time>
      </trkpt>
      <trkpt lat="48.71442" lon="2.13031">
        <ele>152</ele>
        <time>2000-01-01T00:42:37.000Z</time>
      </trkpt>
      <trkpt lat="48.71478" lon="2.13031">
        <ele>150</ele>
        <time>2000-01-01T00:42:47.000Z</time>
      </trkpt>
      <trkpt lat="48.71503" lon="2.13031">
        <ele>150</ele>
        <time>2000-01-01T00:42:57.000Z</time>
      </trkpt>
      <trkpt lat="48.71538" lon="2.1303">
        <ele>150</ele>
        <time>2000-01-01T00:43:07.000Z</time>
      </trkpt>
      <trkpt lat="48.71554" lon="2.13017">
        <ele>149</ele>
        <time>2000-01-01T00:43:17.000Z</time>
      </trkpt>
      <trkpt lat="48.71569" lon="2.12995">
        <ele>149</ele>
        <time>2000-01-01T00:43:27.000Z</time>
      </trkpt>
      <trkpt lat="48.71559" lon="2.12974">
        <ele>154.1</ele>
        <time>2000-01-01T00:43:37.000Z</time>
      </trkpt>
      <trkpt lat="48.7152" lon="2.12944">
        <ele>149</ele>
        <time>2000-01-01T00:43:47.000Z</time>
      </trkpt>
      <trkpt lat="48.71495" lon="2.12926">
        <ele>149</ele>
        <time>2000-01-01T00:43:57.000Z</time>
      </trkpt>
      <trkpt lat="48.71461" lon="2.12893">
        <ele>151</ele>
        <time>2000-01-01T00:44:07.000Z</time>
      </trkpt>
      <trkpt lat="48.71437" lon="2.12865">
        <ele>152</ele>
        <time>2000-01-01T00:44:17.000Z</time>
      </trkpt>
      <trkpt lat="48.71423" lon="2.12833">
        <ele>153</ele>
        <time>2000-01-01T00:44:27.000Z</time>
      </trkpt>
      <trkpt lat="48.71403" lon="2.12792">
        <ele>153</ele>
        <time>2000-01-01T00:44:37.000Z</time>
      </trkpt>
      <trkpt lat="48.71371" lon="2.12753">
        <ele>152</ele>
        <time>2000-01-01T00:44:47.000Z</time>
      </trkpt>
      <trkpt lat="48.71349" lon="2.12726">
        <ele>151</ele>
        <time>2000-01-01T00:44:57.000Z</time>
      </trkpt>
      <trkpt lat="48.71312" lon="2.12703">
        <ele>149</ele>
        <time>2000-01-01T00:45:07.000Z</time>
      </trkpt>
      <trkpt lat="48.71298" lon="2.12692">
        <ele>149.3</ele>
        <time>2000-01-01T00:45:17.000Z</time>
      </trkpt>
      <trkpt lat="48.71264" lon="2.12692">
        <ele>146</ele>
        <time>2000-01-01T00:45:27.000Z</time>
      </trkpt>
      <trkpt lat="48.7124" lon="2.1271">
        <ele>142</ele>
        <time>2000-01-01T00:45:37.000Z</time>
      </trkpt>
      <trkpt lat="48.7122" lon="2.12722">
        <ele>140</ele>
        <time>2000-01-01T00:45:47.000Z</time>
      </trkpt>
      <trkpt lat="48.71199" lon="2.12741">
        <ele>135</ele>
        <time>2000-01-01T00:45:57.000Z</time>
      </trkpt>
      <trkpt lat="48.71171" lon="2.12759">
        <ele>134</ele>
        <time>2000-01-01T00:46:07.000Z</time>
      </trkpt>
      <trkpt lat="48.71143" lon="2.12771">
        <ele>129</ele>
        <time>2000-01-01T00:46:17.000Z</time>
      </trkpt>
      <trkpt lat="48.71111" lon="2.1279">
        <ele>127</ele>
        <time>2000-01-01T00:46:27.000Z</time>
      </trkpt>
      <trkpt lat="48.71088" lon="2.12793">
        <ele>120</ele>
        <time>2000-01-01T00:46:37.000Z</time>
      </trkpt>
      <trkpt lat="48.71092" lon="2.12775">
        <ele>116.9</ele>
        <time>2000-01-01T00:46:47.000Z</time>
      </trkpt>
      <trkpt lat="48.71073" lon="2.12746">
        <ele>117</ele>
        <time>2000-01-01T00:46:57.000Z</time>
      </trkpt>
      <trkpt lat="48.71045" lon="2.12707">
        <ele>110</ele>
        <time>2000-01-01T00:47:07.000Z</time>
      </trkpt>
      <trkpt lat="48.71024" lon="2.12742">
        <ele>99</ele>
        <time>2000-01-01T00:47:17.000Z</time>
      </trkpt>
      <trkpt lat="48.70996" lon="2.12792">
        <ele>99</ele>
        <time>2000-01-01T00:47:27.000Z</time>
      </trkpt>
      <trkpt lat="48.70975" lon="2.12765">
        <ele>98</ele>
        <time>2000-01-01T00:47:37.000Z</time>
      </trkpt>
      <trkpt lat="48.70952" lon="2.12735">
        <ele>97</ele>
        <time>2000-01-01T00:47:47.000Z</time>
      </trkpt>
      <trkpt lat="48.70973" lon="2.12702">
        <ele>93</ele>
        <time>2000-01-01T00:47:57.000Z</time>
      </trkpt>
      <trkpt lat="48.70995" lon="2.1267">
        <ele>90</ele>
        <time>2000-01-01T00:48:07.000Z</time>
      </trkpt>
      <trkpt lat="48.7102" lon="2.12632">
        <ele>90</ele>
        <time>2000-01-01T00:48:17.000Z</time>
      </trkpt>
      <trkpt lat="48.71048" lon="2.12595">
        <ele>90</ele>
        <time>2000-01-01T00:48:27.000Z</time>
      </trkpt>
      <trkpt lat="48.71081" lon="2.12572">
        <ele>90</ele>
        <time>2000-01-01T00:48:37.000Z</time>
      </trkpt>
      <trkpt lat="48.71111" lon="2.12542">
        <ele>95</ele>
        <time>2000-01-01T00:48:47.000Z</time>
      </trkpt>
      <trkpt lat="48.71142" lon="2.12512">
        <ele>94</ele>
        <time>2000-01-01T00:48:57.000Z</time>
      </trkpt>
      <trkpt lat="48.71162" lon="2.12492">
        <ele>96</ele>
        <time>2000-01-01T00:49:07.000Z</time>
      </trkpt>
      <trkpt lat="48.71187" lon="2.12468">
        <ele>98</ele>
        <time>2000-01-01T00:49:17.000Z</time>
      </trkpt>
      <trkpt lat="48.71217" lon="2.12446">
        <ele>98</ele>
        <time>2000-01-01T00:49:27.000Z</time>
      </trkpt>
      <trkpt lat="48.71248" lon="2.12424">
        <ele>98</ele>
        <time>2000-01-01T00:49:37.000Z</time>
      </trkpt>
      <trkpt lat="48.71279" lon="2.12402">
        <ele>98</ele>
        <time>2000-01-01T00:49:47.000Z</time>
      </trkpt>
      <trkpt lat="48.71316" lon="2.12375">
        <ele>96</ele>
        <time>2000-01-01T00:49:57.000Z</time>
      </trkpt>
      <trkpt lat="48.71338" lon="2.12377">
        <ele>96</ele>
        <time>2000-01-01T00:50:07.000Z</time>
      </trkpt>
      <trkpt lat="48.7136" lon="2.12378">
        <ele>96</ele>
        <time>2000-01-01T00:50:17.000Z</time>
      </trkpt>
      <trkpt lat="48.71387" lon="2.12397">
        <ele>96</ele>
        <time>2000-01-01T00:50:27.000Z</time>
      </trkpt>
      <trkpt lat="48.71409" lon="2.12413">
        <ele>96</ele>
        <time>2000-01-01T00:50:37.000Z</time>
      </trkpt>
      <trkpt lat="48.71438" lon="2.12433">
        <ele>100</ele>
        <time>2000-01-01T00:50:47.000Z</time>
      </trkpt>
      <trkpt lat="48.71448" lon="2.1247">
        <ele>105</ele>
        <time>2000-01-01T00:50:57.000Z</time>
      </trkpt>
      <trkpt lat="48.71462" lon="2.12523">
        <ele>109</ele>
        <time>2000-01-01T00:51:07.000Z</time>
      </trkpt>
      <trkpt lat="48.71478" lon="2.12557">
        <ele>117</ele>
        <time>2000-01-01T00:51:17.000Z</time>
      </trkpt>
      <trkpt lat="48.71502" lon="2.12609">
        <ele>120</ele>
        <time>2000-01-01T00:51:27.000Z</time>
      </trkpt>
      <trkpt lat="48.71516" lon="2.12653">
        <ele>128</ele>
        <time>2000-01-01T00:51:37.000Z</time>
      </trkpt>
      <trkpt lat="48.71531" lon="2.12696">
        <ele>135</ele>
        <time>2000-01-01T00:51:47.000Z</time>
      </trkpt>
      <trkpt lat="48.71543" lon="2.12729">
        <ele>136</ele>
        <time>2000-01-01T00:51:57.000Z</time>
      </trkpt>
      <trkpt lat="48.71557" lon="2.12769">
        <ele>143</ele>
        <time>2000-01-01T00:52:07.000Z</time>
      </trkpt>
      <trkpt lat="48.71569" lon="2.12823">
        <ele>145</ele>
        <time>2000-01-01T00:52:17.000Z</time>
      </trkpt>
      <trkpt lat="48.71578" lon="2.12867">
        <ele>147</ele>
        <time>2000-01-01T00:52:27.000Z</time>
      </trkpt>
      <trkpt lat="48.7159" lon="2.12923">
        <ele>147</ele>
        <time>2000-01-01T00:52:37.000Z</time>
      </trkpt>
      <trkpt lat="48.71601" lon="2.12983">
        <ele>146</ele>
        <time>2000-01-01T00:52:47.000Z</time>
      </trkpt>
      <trkpt lat="48.71607" lon="2.12947">
        <ele>146</ele>
        <time>2000-01-01T00:52:57.000Z</time>
      </trkpt>
      <trkpt lat="48.71616" lon="2.12901">
        <ele>147</ele>
        <time>2000-01-01T00:53:07.000Z</time>
      </trkpt>
      <trkpt lat="48.71617" lon="2.12854">
        <ele>149</ele>
        <time>2000-01-01T00:53:17.000Z</time>
      </trkpt>
      <trkpt lat="48.71619" lon="2.12807">
        <ele>150</ele>
        <time>2000-01-01T00:53:27.000Z</time>
      </trkpt>
      <trkpt lat="48.71615" lon="2.12745">
        <ele>151</ele>
        <time>2000-01-01T00:53:37.000Z</time>
      </trkpt>
      <trkpt lat="48.71614" lon="2.12685">
        <ele>152</ele>
        <time>2000-01-01T00:53:47.000Z</time>
      </trkpt>
      <trkpt lat="48.71615" lon="2.12651">
        <ele>152</ele>
        <time>2000-01-01T00:53:57.000Z</time>
      </trkpt>
      <trkpt lat="48.71616" lon="2.12616">
        <ele>149</ele>
        <time>2000-01-01T00:54:07.000Z</time>
      </trkpt>
      <trkpt lat="48.71633" lon="2.12592">
        <ele>147</ele>
        <time>2000-01-01T00:54:17.000Z</time>
      </trkpt>
      <trkpt lat="48.71651" lon="2.12566">
        <ele>147</ele>
        <time>2000-01-01T00:54:27.000Z</time>
      </trkpt>
      <trkpt lat="48.71681" lon="2.12542">
        <ele>147</ele>
        <time>2000-01-01T00:54:37.000Z</time>
      </trkpt>
      <trkpt lat="48.71704" lon="2.12501">
        <ele>147</ele>
        <time>2000-01-01T00:54:47.000Z</time>
      </trkpt>
      <trkpt lat="48.71745" lon="2.12506">
        <ele>138</ele>
        <time>2000-01-01T00:54:57.000Z</time>
      </trkpt>
      <trkpt lat="48.71769" lon="2.12512">
        <ele>138</ele>
        <time>2000-01-01T00:55:07.000Z</time>
      </trkpt>
      <trkpt lat="48.71795" lon="2.12518">
        <ele>139</ele>
        <time>2000-01-01T00:55:17.000Z</time>
      </trkpt>
      <trkpt lat="48.71822" lon="2.12532">
        <ele>138</ele>
        <time>2000-01-01T00:55:27.000Z</time>
      </trkpt>
      <trkpt lat="48.71845" lon="2.12541">
        <ele>138</ele>
        <time>2000-01-01T00:55:37.000Z</time>
      </trkpt>
      <trkpt lat="48.71872" lon="2.12553">
        <ele>138</ele>
        <time>2000-01-01T00:55:47.000Z</time>
      </trkpt>
      <trkpt lat="48.71883" lon="2.12596">
        <ele>139</ele>
        <time>2000-01-01T00:55:57.000Z</time>
      </trkpt>
      <trkpt lat="48.71902" lon="2.12634">
        <ele>140</ele>
        <time>2000-01-01T00:56:07.000Z</time>
      </trkpt>
      <trkpt lat="48.71916" lon="2.1266">
        <ele>148</ele>
        <time>2000-01-01T00:56:17.000Z</time>
      </trkpt>
      <trkpt lat="48.7193" lon="2.12687">
        <ele>150</ele>
        <time>2000-01-01T00:56:27.000Z</time>
      </trkpt>
      <trkpt lat="48.71941" lon="2.12649">
        <ele>147</ele>
        <time>2000-01-01T00:56:37.000Z</time>
      </trkpt>
      <trkpt lat="48.71974" lon="2.12604">
        <ele>145</ele>
        <time>2000-01-01T00:56:47.000Z</time>
      </trkpt>
      <trkpt lat="48.72009" lon="2.12577">
        <ele>138</ele>
        <time>2000-01-01T00:56:57.000Z</time>
      </trkpt>
      <trkpt lat="48.72035" lon="2.12553">
        <ele>132</ele>
        <time>2000-01-01T00:57:07.000Z</time>
      </trkpt>
      <trkpt lat="48.72055" lon="2.12534">
        <ele>127</ele>
        <time>2000-01-01T00:57:17.000Z</time>
      </trkpt>
      <trkpt lat="48.72077" lon="2.12514">
        <ele>123</ele>
        <time>2000-01-01T00:57:27.000Z</time>
      </trkpt>
      <trkpt lat="48.72104" lon="2.12513">
        <ele>122</ele>
        <time>2000-01-01T00:57:37.000Z</time>
      </trkpt>
      <trkpt lat="48.72145" lon="2.12511">
        <ele>116</ele>
        <time>2000-01-01T00:57:47.000Z</time>
      </trkpt>
      <trkpt lat="48.72165" lon="2.12519">
        <ele>113</ele>
        <time>2000-01-01T00:57:57.000Z</time>
      </trkpt>
      <trkpt lat="48.72196" lon="2.12519">
        <ele>110</ele>
        <time>2000-01-01T00:58:07.000Z</time>
      </trkpt>
      <trkpt lat="48.72225" lon="2.12533">
        <ele>106</ele>
        <time>2000-01-01T00:58:17.000Z</time>
      </trkpt>
      <trkpt lat="48.72251" lon="2.12497">
        <ele>103</ele>
        <time>2000-01-01T00:58:27.000Z</time>
      </trkpt>
      <trkpt lat="48.72277" lon="2.12466">
        <ele>102</ele>
        <time>2000-01-01T00:58:37.000Z</time>
      </trkpt>
      <trkpt lat="48.72298" lon="2.12441">
        <ele>102</ele>
        <time>2000-01-01T00:58:47.000Z</time>
      </trkpt>
      <trkpt lat="48.72328" lon="2.12405">
        <ele>104</ele>
        <time>2000-01-01T00:58:57.000Z</time>
      </trkpt>
      <trkpt lat="48.72349" lon="2.12414">
        <ele>106</ele>
        <time>2000-01-01T00:59:07.000Z</time>
      </trkpt>
      <trkpt lat="48.72373" lon="2.12413">
        <ele>110</ele>
        <time>2000-01-01T00:59:17.000Z</time>
      </trkpt>
      <trkpt lat="48.724" lon="2.12399">
        <ele>110</ele>
        <time>2000-01-01T00:59:27.000Z</time>
      </trkpt>
      <trkpt lat="48.72435" lon="2.12375">
        <ele>114</ele>
        <time>2000-01-01T00:59:37.000Z</time>
      </trkpt>
      <trkpt lat="48.72439" lon="2.12335">
        <ele>122</ele>
        <time>2000-01-01T00:59:47.000Z</time>
      </trkpt>
      <trkpt lat="48.72446" lon="2.12273">
        <ele>123</ele>
        <time>2000-01-01T00:59:57.000Z</time>
      </trkpt>
      <trkpt lat="48.72437" lon="2.12225">
        <ele>130</ele>
        <time>2000-01-01T01:00:07.000Z</time>
      </trkpt>
      <trkpt lat="48.72412" lon="2.12233">
        <ele>140</ele>
        <time>2000-01-01T01:00:17.000Z</time>
      </trkpt>
      <trkpt lat="48.72381" lon="2.12243">
        <ele>140</ele>
        <time>2000-01-01T01:00:27.000Z</time>
      </trkpt>
      <trkpt lat="48.72363" lon="2.12216">
        <ele>137</ele>
        <time>2000-01-01T01:00:37.000Z</time>
      </trkpt>
      <trkpt lat="48.72344" lon="2.12179">
        <ele>140</ele>
        <time>2000-01-01T01:00:47.000Z</time>
      </trkpt>
      <trkpt lat="48.72325" lon="2.12146">
        <ele>143</ele>
        <time>2000-01-01T01:00:57.000Z</time>
      </trkpt>
      <trkpt lat="48.72302" lon="2.12113">
        <ele>148</ele>
        <time>2000-01-01T01:01:07.000Z</time>
      </trkpt>
      <trkpt lat="48.72272" lon="2.12088">
        <ele>149</ele>
        <time>2000-01-01T01:01:17.000Z</time>
      </trkpt>
      <trkpt lat="48.72242" lon="2.12063">
        <ele>150</ele>
        <time>2000-01-01T01:01:27.000Z</time>
      </trkpt>
      <trkpt lat="48.72212" lon="2.12037">
        <ele>150</ele>
        <time>2000-01-01T01:01:37.000Z</time>
      </trkpt>
      <trkpt lat="48.72173" lon="2.12005">
        <ele>149</ele>
        <time>2000-01-01T01:01:47.000Z</time>
      </trkpt>
      <trkpt lat="48.72166" lon="2.11996">
        <ele>143.9</ele>
        <time>2000-01-01T01:01:57.000Z</time>
      </trkpt>
      <trkpt lat="48.72182" lon="2.11929">
        <ele>148</ele>
        <time>2000-01-01T01:02:07.000Z</time>
      </trkpt>
      <trkpt lat="48.72196" lon="2.11879">
        <ele>148</ele>
        <time>2000-01-01T01:02:17.000Z</time>
      </trkpt>
      <trkpt lat="48.72211" lon="2.11829">
        <ele>146</ele>
        <time>2000-01-01T01:02:27.000Z</time>
      </trkpt>
      <trkpt lat="48.72227" lon="2.11783">
        <ele>146</ele>
        <time>2000-01-01T01:02:37.000Z</time>
      </trkpt>
      <trkpt lat="48.72243" lon="2.11736">
        <ele>143</ele>
        <time>2000-01-01T01:02:47.000Z</time>
      </trkpt>
      <trkpt lat="48.72253" lon="2.11704">
        <ele>141</ele>
        <time>2000-01-01T01:02:57.000Z</time>
      </trkpt>
      <trkpt lat="48.72263" lon="2.11669">
        <ele>138</ele>
        <time>2000-01-01T01:03:07.000Z</time>
      </trkpt>
      <trkpt lat="48.72277" lon="2.11631">
        <ele>139</ele>
        <time>2000-01-01T01:03:17.000Z</time>
      </trkpt>
      <trkpt lat="48.72292" lon="2.11603">
        <ele>141</ele>
        <time>2000-01-01T01:03:27.000Z</time>
      </trkpt>
      <trkpt lat="48.72309" lon="2.11571">
        <ele>143</ele>
        <time>2000-01-01T01:03:37.000Z</time>
      </trkpt>
      <trkpt lat="48.72337" lon="2.11534">
        <ele>145</ele>
        <time>2000-01-01T01:03:47.000Z</time>
      </trkpt>
      <trkpt lat="48.72364" lon="2.11496">
        <ele>145</ele>
        <time>2000-01-01T01:03:57.000Z</time>
      </trkpt>
      <trkpt lat="48.72388" lon="2.11456">
        <ele>143</ele>
        <time>2000-01-01T01:04:07.000Z</time>
      </trkpt>
      <trkpt lat="48.72419" lon="2.11422">
        <ele>141</ele>
        <time>2000-01-01T01:04:17.000Z</time>
      </trkpt>
      <trkpt lat="48.7244" lon="2.11394">
        <ele>140</ele>
        <time>2000-01-01T01:04:27.000Z</time>
      </trkpt>
      <trkpt lat="48.72477" lon="2.11347">
        <ele>139</ele>
        <time>2000-01-01T01:04:37.000Z</time>
      </trkpt>
      <trkpt lat="48.72451" lon="2.11345">
        <ele>133</ele>
        <time>2000-01-01T01:04:47.000Z</time>
      </trkpt>
      <trkpt lat="48.7241" lon="2.11341">
        <ele>126</ele>
        <time>2000-01-01T01:04:57.000Z</time>
      </trkpt>
      <trkpt lat="48.72387" lon="2.11338">
        <ele>121</ele>
        <time>2000-01-01T01:05:07.000Z</time>
      </trkpt>
      <trkpt lat="48.72361" lon="2.11335">
        <ele>118</ele>
        <time>2000-01-01T01:05:17.000Z</time>
      </trkpt>
      <trkpt lat="48.72328" lon="2.1133">
        <ele>114</ele>
        <time>2000-01-01T01:05:27.000Z</time>
      </trkpt>
      <trkpt lat="48.72288" lon="2.11321">
        <ele>109</ele>
        <time>2000-01-01T01:05:37.000Z</time>
      </trkpt>
      <trkpt lat="48.72269" lon="2.11287">
        <ele>97</ele>
        <time>2000-01-01T01:05:47.000Z</time>
      </trkpt>
      <trkpt lat="48.72243" lon="2.11314">
        <ele>90</ele>
        <time>2000-01-01T01:05:57.000Z</time>
      </trkpt>
      <trkpt lat="48.72219" lon="2.11336">
        <ele>89</ele>
        <time>2000-01-01T01:06:07.000Z</time>
      </trkpt>
      <trkpt lat="48.72197" lon="2.11378">
        <ele>91</ele>
        <time>2000-01-01T01:06:17.000Z</time>
      </trkpt>
      <trkpt lat="48.72185" lon="2.11391">
        <ele>92.9</ele>
        <time>2000-01-01T01:06:27.000Z</time>
      </trkpt>
      <trkpt lat="48.72157" lon="2.11428">
        <ele>94</ele>
        <time>2000-01-01T01:06:37.000Z</time>
      </trkpt>
      <trkpt lat="48.72134" lon="2.11471">
        <ele>94</ele>
        <time>2000-01-01T01:06:47.000Z</time>
      </trkpt>
      <trkpt lat="48.72128" lon="2.11506">
        <ele>94</ele>
        <time>2000-01-01T01:06:57.000Z</time>
      </trkpt>
      <trkpt lat="48.72121" lon="2.11549">
        <ele>93</ele>
        <time>2000-01-01T01:07:07.000Z</time>
      </trkpt>
      <trkpt lat="48.72093" lon="2.11582">
        <ele>92</ele>
        <time>2000-01-01T01:07:17.000Z</time>
      </trkpt>
      <trkpt lat="48.72068" lon="2.11622">
        <ele>87</ele>
        <time>2000-01-01T01:07:27.000Z</time>
      </trkpt>
      <trkpt lat="48.72057" lon="2.11658">
        <ele>86</ele>
        <time>2000-01-01T01:07:37.000Z</time>
      </trkpt>
      <trkpt lat="48.72051" lon="2.11706">
        <ele>86</ele>
        <time>2000-01-01T01:07:47.000Z</time>
      </trkpt>
      <trkpt lat="48.72048" lon="2.11742">
        <ele>87</ele>
        <time>2000-01-01T01:07:57.000Z</time>
      </trkpt>
      <trkpt lat="48.72043" lon="2.11787">
        <ele>91</ele>
        <time>2000-01-01T01:08:07.000Z</time>
      </trkpt>
      <trkpt lat="48.72052" lon="2.11826">
        <ele>93</ele>
        <time>2000-01-01T01:08:17.000Z</time>
      </trkpt>
      <trkpt lat="48.72042" lon="2.11885">
        <ele>97</ele>
        <time>2000-01-01T01:08:27.000Z</time>
      </trkpt>
      <trkpt lat="48.72018" lon="2.11921">
        <ele>96</ele>
        <time>2000-01-01T01:08:37.000Z</time>
      </trkpt>
      <trkpt lat="48.71998" lon="2.11969">
        <ele>96</ele>
        <time>2000-01-01T01:08:47.000Z</time>
      </trkpt>
      <trkpt lat="48.71987" lon="2.11999">
        <ele>94</ele>
        <time>2000-01-01T01:08:57.000Z</time>
      </trkpt>
      <trkpt lat="48.71977" lon="2.12029">
        <ele>93</ele>
        <time>2000-01-01T01:09:07.000Z</time>
      </trkpt>
      <trkpt lat="48.71958" lon="2.12065">
        <ele>87</ele>
        <time>2000-01-01T01:09:17.000Z</time>
      </trkpt>
      <trkpt lat="48.71944" lon="2.12099">
        <ele>87</ele>
        <time>2000-01-01T01:09:27.000Z</time>
      </trkpt>
      <trkpt lat="48.71931" lon="2.12145">
        <ele>88</ele>
        <time>2000-01-01T01:09:37.000Z</time>
      </trkpt>
      <trkpt lat="48.71899" lon="2.12119">
        <ele>85</ele>
        <time>2000-01-01T01:09:47.000Z</time>
      </trkpt>
      <trkpt lat="48.71874" lon="2.12091">
        <ele>83</ele>
        <time>2000-01-01T01:09:57.000Z</time>
      </trkpt>
      <trkpt lat="48.71845" lon="2.12063">
        <ele>79</ele>
        <time>2000-01-01T01:10:07.000Z</time>
      </trkpt>
      <trkpt lat="48.71812" lon="2.12039">
        <ele>78</ele>
        <time>2000-01-01T01:10:17.000Z</time>
      </trkpt>
      <trkpt lat="48.71788" lon="2.12028">
        <ele>78</ele>
        <time>2000-01-01T01:10:27.000Z</time>
      </trkpt>
      <trkpt lat="48.71757" lon="2.12014">
        <ele>77</ele>
        <time>2000-01-01T01:10:37.000Z</time>
      </trkpt>
      <trkpt lat="48.71777" lon="2.12072">
        <ele>76</ele>
        <time>2000-01-01T01:10:47.000Z</time>
      </trkpt>
      <trkpt lat="48.71749" lon="2.12087">
        <ele>76</ele>
        <time>2000-01-01T01:10:57.000Z</time>
      </trkpt>
      <trkpt lat="48.71728" lon="2.12109">
        <ele>74</ele>
        <time>2000-01-01T01:11:07.000Z</time>
      </trkpt>
      <trkpt lat="48.71701" lon="2.12136">
        <ele>73</ele>
        <time>2000-01-01T01:11:17.000Z</time>
      </trkpt>
      <trkpt lat="48.7169" lon="2.1217">
        <ele>73</ele>
        <time>2000-01-01T01:11:27.000Z</time>
      </trkpt>
      <trkpt lat="48.71672" lon="2.12209">
        <ele>75</ele>
        <time>2000-01-01T01:11:37.000Z</time>
      </trkpt>
      <trkpt lat="48.71661" lon="2.12231">
        <ele>81</ele>
        <time>2000-01-01T01:11:47.000Z</time>
      </trkpt>
      <trkpt lat="48.71618" lon="2.12239">
        <ele>81</ele>
        <time>2000-01-01T01:11:57.000Z</time>
      </trkpt>
      <trkpt lat="48.71598" lon="2.12216">
        <ele>81</ele>
        <time>2000-01-01T01:12:07.000Z</time>
      </trkpt>
      <trkpt lat="48.71574" lon="2.12181">
        <ele>79</ele>
        <time>2000-01-01T01:12:17.000Z</time>
      </trkpt>
      <trkpt lat="48.71544" lon="2.12136">
        <ele>78</ele>
        <time>2000-01-01T01:12:27.000Z</time>
      </trkpt>
      <trkpt lat="48.71538" lon="2.1209">
        <ele>73</ele>
        <time>2000-01-01T01:12:37.000Z</time>
      </trkpt>
      <trkpt lat="48.71531" lon="2.12034">
        <ele>73</ele>
        <time>2000-01-01T01:12:47.000Z</time>
      </trkpt>
      <trkpt lat="48.71521" lon="2.1198">
        <ele>74</ele>
        <time>2000-01-01T01:12:57.000Z</time>
      </trkpt>
      <trkpt lat="48.71511" lon="2.11934">
        <ele>77</ele>
        <time>2000-01-01T01:13:07.000Z</time>
      </trkpt>
      <trkpt lat="48.71503" lon="2.11897">
        <ele>77</ele>
        <time>2000-01-01T01:13:17.000Z</time>
      </trkpt>
      <trkpt lat="48.71491" lon="2.11846">
        <ele>80</ele>
        <time>2000-01-01T01:13:27.000Z</time>
      </trkpt>
      <trkpt lat="48.71486" lon="2.11817">
        <ele>84</ele>
        <time>2000-01-01T01:13:37.000Z</time>
      </trkpt>
      <trkpt lat="48.71511" lon="2.11795">
        <ele>86</ele>
        <time>2000-01-01T01:13:47.000Z</time>
      </trkpt>
      <trkpt lat="48.71503" lon="2.11752">
        <ele>86</ele>
        <time>2000-01-01T01:13:57.000Z</time>
      </trkpt>
      <trkpt lat="48.7148" lon="2.11706">
        <ele>93</ele>
        <time>2000-01-01T01:14:07.000Z</time>
      </trkpt>
      <trkpt lat="48.71465" lon="2.11657">
        <ele>97</ele>
        <time>2000-01-01T01:14:17.000Z</time>
      </trkpt>
      <trkpt lat="48.71451" lon="2.11604">
        <ele>101</ele>
        <time>2000-01-01T01:14:27.000Z</time>
      </trkpt>
      <trkpt lat="48.71446" lon="2.11555">
        <ele>104</ele>
        <time>2000-01-01T01:14:37.000Z</time>
      </trkpt>
      <trkpt lat="48.71434" lon="2.11502">
        <ele>113</ele>
        <time>2000-01-01T01:14:47.000Z</time>
      </trkpt>
      <trkpt lat="48.71429" lon="2.11456">
        <ele>120</ele>
        <time>2000-01-01T01:14:57.000Z</time>
      </trkpt>
      <trkpt lat="48.71418" lon="2.11427">
        <ele>121</ele>
        <time>2000-01-01T01:15:07.000Z</time>
      </trkpt>
      <trkpt lat="48.7141" lon="2.11373">
        <ele>123</ele>
        <time>2000-01-01T01:15:17.000Z</time>
      </trkpt>
      <trkpt lat="48.71415" lon="2.11338">
        <ele>124</ele>
        <time>2000-01-01T01:15:27.000Z</time>
      </trkpt>
      <trkpt lat="48.71421" lon="2.11298">
        <ele>125</ele>
        <time>2000-01-01T01:15:37.000Z</time>
      </trkpt>
      <trkpt lat="48.71431" lon="2.11264">
        <ele>125</ele>
        <time>2000-01-01T01:15:47.000Z</time>
      </trkpt>
      <trkpt lat="48.71444" lon="2.11223">
        <ele>127</ele>
        <time>2000-01-01T01:15:57.000Z</time>
      </trkpt>
      <trkpt lat="48.71448" lon="2.11192">
        <ele>127</ele>
        <time>2000-01-01T01:16:07.000Z</time>
      </trkpt>
      <trkpt lat="48.71441" lon="2.11154">
        <ele>127</ele>
        <time>2000-01-01T01:16:17.000Z</time>
      </trkpt>
      <trkpt lat="48.71441" lon="2.11119">
        <ele>127</ele>
        <time>2000-01-01T01:16:27.000Z</time>
      </trkpt>
      <trkpt lat="48.71441" lon="2.11079">
        <ele>128</ele>
        <time>2000-01-01T01:16:37.000Z</time>
      </trkpt>
      <trkpt lat="48.71452" lon="2.11019">
        <ele>128</ele>
        <time>2000-01-01T01:16:47.000Z</time>
      </trkpt>
      <trkpt lat="48.71436" lon="2.11002">
        <ele>130</ele>
        <time>2000-01-01T01:16:57.000Z</time>
      </trkpt>
      <trkpt lat="48.71407" lon="2.10976">
        <ele>132</ele>
        <time>2000-01-01T01:17:07.000Z</time>
      </trkpt>
      <trkpt lat="48.71377" lon="2.1095">
        <ele>134</ele>
        <time>2000-01-01T01:17:17.000Z</time>
      </trkpt>
      <trkpt lat="48.71341" lon="2.10923">
        <ele>139</ele>
        <time>2000-01-01T01:17:27.000Z</time>
      </trkpt>
      <trkpt lat="48.71303" lon="2.10934">
        <ele>153</ele>
        <time>2000-01-01T01:17:37.000Z</time>
      </trkpt>
      <trkpt lat="48.71264" lon="2.10945">
        <ele>158</ele>
        <time>2000-01-01T01:17:47.000Z</time>
      </trkpt>
      <trkpt lat="48.71222" lon="2.10961">
        <ele>163</ele>
        <time>2000-01-01T01:17:57.000Z</time>
      </trkpt>
      <trkpt lat="48.71185" lon="2.1097">
        <ele>164</ele>
        <time>2000-01-01T01:18:07.000Z</time>
      </trkpt>
      <trkpt lat="48.7115" lon="2.1098">
        <ele>163</ele>
        <time>2000-01-01T01:18:17.000Z</time>
      </trkpt>
      <trkpt lat="48.71113" lon="2.10992">
        <ele>163</ele>
        <time>2000-01-01T01:18:27.000Z</time>
      </trkpt>
      <trkpt lat="48.71101" lon="2.11037">
        <ele>162</ele>
        <time>2000-01-01T01:18:37.000Z</time>
      </trkpt>
      <trkpt lat="48.71077" lon="2.11069">
        <ele>161</ele>
        <time>2000-01-01T01:18:47.000Z</time>
      </trkpt>
      <trkpt lat="48.71053" lon="2.11101">
        <ele>161</ele>
        <time>2000-01-01T01:18:57.000Z</time>
      </trkpt>
      <trkpt lat="48.71019" lon="2.11146">
        <ele>159</ele>
        <time>2000-01-01T01:19:07.000Z</time>
      </trkpt>
      <trkpt lat="48.70999" lon="2.11174">
        <ele>158</ele>
        <time>2000-01-01T01:19:17.000Z</time>
      </trkpt>
      <trkpt lat="48.70965" lon="2.1122">
        <ele>156</ele>
        <time>2000-01-01T01:19:27.000Z</time>
      </trkpt>
      <trkpt lat="48.70946" lon="2.11245">
        <ele>154</ele>
        <time>2000-01-01T01:19:37.000Z</time>
      </trkpt>
      <trkpt lat="48.70922" lon="2.11277">
        <ele>154</ele>
        <time>2000-01-01T01:19:47.000Z</time>
      </trkpt>
      <trkpt lat="48.70904" lon="2.11299">
        <ele>154</ele>
        <time>2000-01-01T01:19:57.000Z</time>
      </trkpt>
      <trkpt lat="48.70887" lon="2.11321">
        <ele>154</ele>
        <time>2000-01-01T01:20:07.000Z</time>
      </trkpt>
      <trkpt lat="48.70857" lon="2.11364">
        <ele>154</ele>
        <time>2000-01-01T01:20:17.000Z</time>
      </trkpt>
      <trkpt lat="48.70833" lon="2.11409">
        <ele>152</ele>
        <time>2000-01-01T01:20:27.000Z</time>
      </trkpt>
      <trkpt lat="48.70801" lon="2.1145">
        <ele>146</ele>
        <time>2000-01-01T01:20:37.000Z</time>
      </trkpt>
      <trkpt lat="48.70805" lon="2.11504">
        <ele>145</ele>
        <time>2000-01-01T01:20:47.000Z</time>
      </trkpt>
      <trkpt lat="48.70817" lon="2.11567">
        <ele>140</ele>
        <time>2000-01-01T01:20:57.000Z</time>
      </trkpt>
      <trkpt lat="48.70819" lon="2.11604">
        <ele>136</ele>
        <time>2000-01-01T01:21:07.000Z</time>
      </trkpt>
      <trkpt lat="48.70816" lon="2.11648">
        <ele>133</ele>
        <time>2000-01-01T01:21:17.000Z</time>
      </trkpt>
      <trkpt lat="48.70808" lon="2.11703">
        <ele>131</ele>
        <time>2000-01-01T01:21:27.000Z</time>
      </trkpt>
      <trkpt lat="48.70788" lon="2.11755">
        <ele>129</ele>
        <time>2000-01-01T01:21:37.000Z</time>
      </trkpt>
      <trkpt lat="48.70778" lon="2.1179">
        <ele>128</ele>
        <time>2000-01-01T01:21:47.000Z</time>
      </trkpt>
      <trkpt lat="48.70764" lon="2.11837">
        <ele>125</ele>
        <time>2000-01-01T01:21:57.000Z</time>
      </trkpt>
      <trkpt lat="48.70756" lon="2.1187">
        <ele>120</ele>
        <time>2000-01-01T01:22:07.000Z</time>
      </trkpt>
      <trkpt lat="48.70748" lon="2.11908">
        <ele>119</ele>
        <time>2000-01-01T01:22:17.000Z</time>
      </trkpt>
      <trkpt lat="48.70706" lon="2.11901">
        <ele>112</ele>
        <time>2000-01-01T01:22:27.000Z</time>
      </trkpt>
      <trkpt lat="48.70685" lon="2.1191">
        <ele>112</ele>
        <time>2000-01-01T01:22:37.000Z</time>
      </trkpt>
      <trkpt lat="48.70665" lon="2.11928">
        <ele>110</ele>
        <time>2000-01-01T01:22:47.000Z</time>
      </trkpt>
      <trkpt lat="48.70637" lon="2.1197">
        <ele>107</ele>
        <time>2000-01-01T01:22:57.000Z</time>
      </trkpt>
      <trkpt lat="48.70622" lon="2.11977">
        <ele>100.3</ele>
        <time>2000-01-01T01:23:07.000Z</time>
      </trkpt>
      <trkpt lat="48.70608" lon="2.11968">
        <ele>100</ele>
        <time>2000-01-01T01:23:17.000Z</time>
      </trkpt>
      <trkpt lat="48.70597" lon="2.1192">
        <ele>99</ele>
        <time>2000-01-01T01:23:27.000Z</time>
      </trkpt>
      <trkpt lat="48.70575" lon="2.11922">
        <ele>98</ele>
        <time>2000-01-01T01:23:37.000Z</time>
      </trkpt>
      <trkpt lat="48.70546" lon="2.11957">
        <ele>95</ele>
        <time>2000-01-01T01:23:47.000Z</time>
      </trkpt>
      <trkpt lat="48.70522" lon="2.11918">
        <ele>92</ele>
        <time>2000-01-01T01:23:57.000Z</time>
      </trkpt>
      <trkpt lat="48.705" lon="2.11867">
        <ele>89</ele>
        <time>2000-01-01T01:24:07.000Z</time>
      </trkpt>
      <trkpt lat="48.70483" lon="2.11865">
        <ele>89.3</ele>
        <time>2000-01-01T01:24:17.000Z</time>
      </trkpt>
      <trkpt lat="48.70461" lon="2.11879">
        <ele>86</ele>
        <time>2000-01-01T01:24:27.000Z</time>
      </trkpt>
      <trkpt lat="48.70469" lon="2.11928">
        <ele>84</ele>
        <time>2000-01-01T01:24:37.000Z</time>
      </trkpt>
      <trkpt lat="48.70467" lon="2.11976">
        <ele>83</ele>
        <time>2000-01-01T01:24:47.000Z</time>
      </trkpt>
      <trkpt lat="48.70465" lon="2.12025">
        <ele>83</ele>
        <time>2000-01-01T01:24:57.000Z</time>
      </trkpt>
      <trkpt lat="48.70461" lon="2.12104">
        <ele>83</ele>
        <time>2000-01-01T01:25:07.000Z</time>
      </trkpt>
      <trkpt lat="48.70425" lon="2.12099">
        <ele>83</ele>
        <time>2000-01-01T01:25:17.000Z</time>
      </trkpt>
      <trkpt lat="48.70399" lon="2.12095">
        <ele>74</ele>
        <time>2000-01-01T01:25:27.000Z</time>
      </trkpt>
      <trkpt lat="48.70393" lon="2.1213">
        <ele>71</ele>
        <time>2000-01-01T01:25:37.000Z</time>
      </trkpt>
      <trkpt lat="48.70387" lon="2.12137">
        <ele>71.7</ele>
        <time>2000-01-01T01:25:47.000Z</time>
      </trkpt>
      <trkpt lat="48.70366" lon="2.12135">
        <ele>69</ele>
        <time>2000-01-01T01:25:57.000Z</time>
      </trkpt>
      <trkpt lat="48.70347" lon="2.12157">
        <ele>65</ele>
        <time>2000-01-01T01:26:07.000Z</time>
      </trkpt>
      <trkpt lat="48.70346" lon="2.12188">
        <ele>63</ele>
        <time>2000-01-01T01:26:17.000Z</time>
      </trkpt>
      <trkpt lat="48.70351" lon="2.12216">
        <ele>61</ele>
        <time>2000-01-01T01:26:27.000Z</time>
      </trkpt>
      <trkpt lat="48.70314" lon="2.12225">
        <ele>60</ele>
        <time>2000-01-01T01:26:37.000Z</time>
      </trkpt>
      <trkpt lat="48.70314" lon="2.12243">
        <ele>64.4</ele>
        <time>2000-01-01T01:26:47.000Z</time>
      </trkpt>
      <trkpt lat="48.70308" lon="2.12263">
        <ele>55</ele>
        <time>2000-01-01T01:26:57.000Z</time>
      </trkpt>
      <trkpt lat="48.70296" lon="2.1228">
        <ele>64.3</ele>
        <time>2000-01-01T01:27:07.000Z</time>
      </trkpt>
      <trkpt lat="48.7028" lon="2.12296">
        <ele>54</ele>
        <time>2000-01-01T01:27:17.000Z</time>
      </trkpt>
      <trkpt lat="48.7027" lon="2.12338">
        <ele>52</ele>
        <time>2000-01-01T01:27:27.000Z</time>
      </trkpt>
      <trkpt lat="48.70263" lon="2.12379">
        <ele>52</ele>
        <time>2000-01-01T01:27:37.000Z</time>
      </trkpt>
      <trkpt lat="48.70254" lon="2.12411">
        <ele>51</ele>
        <time>2000-01-01T01:27:47.000Z</time>
      </trkpt>
      <trkpt lat="48.70236" lon="2.12445">
        <ele>51</ele>
        <time>2000-01-01T01:27:57.000Z</time>
      </trkpt>
      <trkpt lat="48.70204" lon="2.1249">
        <ele>51</ele>
        <time>2000-01-01T01:28:07.000Z</time>
      </trkpt>
      <trkpt lat="48.70178" lon="2.1249">
        <ele>51</ele>
        <time>2000-01-01T01:28:17.000Z</time>
      </trkpt>
      <trkpt lat="48.70152" lon="2.12483">
        <ele>51</ele>
        <time>2000-01-01T01:28:27.000Z</time>
      </trkpt>
      <trkpt lat="48.70129" lon="2.12466">
        <ele>52</ele>
        <time>2000-01-01T01:28:37.000Z</time>
      </trkpt>
      <trkpt lat="48.70129" lon="2.12491">
        <ele>65.8</ele>
        <time>2000-01-01T01:28:47.000Z</time>
      </trkpt>
      <trkpt lat="48.70129" lon="2.12535">
        <ele>52</ele>
        <time>2000-01-01T01:28:57.000Z</time>
      </trkpt>
      <trkpt lat="48.70109" lon="2.12566">
        <ele>54</ele>
        <time>2000-01-01T01:29:07.000Z</time>
      </trkpt>
      <trkpt lat="48.70086" lon="2.12594">
        <ele>58</ele>
        <time>2000-01-01T01:29:17.000Z</time>
      </trkpt>
      <trkpt lat="48.7006" lon="2.12629">
        <ele>60</ele>
        <time>2000-01-01T01:29:27.000Z</time>
      </trkpt>
      <trkpt lat="48.70033" lon="2.12666">
        <ele>60</ele>
        <time>2000-01-01T01:29:37.000Z</time>
      </trkpt>
      <trkpt lat="48.70007" lon="2.12697">
        <ele>58</ele>
        <time>2000-01-01T01:29:47.000Z</time>
      </trkpt>
      <trkpt lat="48.69986" lon="2.12738">
        <ele>57</ele>
        <time>2000-01-01T01:29:57.000Z</time>
      </trkpt>
      <trkpt lat="48.69976" lon="2.12769">
        <ele>55</ele>
        <time>2000-01-01T01:30:07.000Z</time>
      </trkpt>
      <trkpt lat="48.69966" lon="2.12801">
        <ele>55</ele>
        <time>2000-01-01T01:30:17.000Z</time>
      </trkpt>
      <trkpt lat="48.69952" lon="2.12841">
        <ele>55</ele>
        <time>2000-01-01T01:30:27.000Z</time>
      </trkpt>
      <trkpt lat="48.69942" lon="2.12883">
        <ele>55</ele>
        <time>2000-01-01T01:30:37.000Z</time>
      </trkpt>
      <trkpt lat="48.69933" lon="2.12927">
        <ele>54</ele>
        <time>2000-01-01T01:30:47.000Z</time>
      </trkpt>
      <trkpt lat="48.69912" lon="2.12911">
        <ele>54</ele>
        <time>2000-01-01T01:30:57.000Z</time>
      </trkpt>
      <trkpt lat="48.69892" lon="2.12909">
        <ele>54</ele>
        <time>2000-01-01T01:31:07.000Z</time>
      </trkpt>
      <trkpt lat="48.6988" lon="2.12894">
        <ele>63</ele>
        <time>2000-01-01T01:31:17.000Z</time>
      </trkpt>
      <trkpt lat="48.69857" lon="2.12907">
        <ele>54</ele>
        <time>2000-01-01T01:31:27.000Z</time>
      </trkpt>
      <trkpt lat="48.69836" lon="2.12941">
        <ele>54</ele>
        <time>2000-01-01T01:31:37.000Z</time>
      </trkpt>
      <trkpt lat="48.69819" lon="2.1297">
        <ele>55</ele>
        <time>2000-01-01T01:31:47.000Z</time>
      </trkpt>
      <trkpt lat="48.6981" lon="2.13025">
        <ele>57</ele>
        <time>2000-01-01T01:31:57.000Z</time>
      </trkpt>
      <trkpt lat="48.69822" lon="2.13051">
        <ele>57</ele>
        <time>2000-01-01T01:32:07.000Z</time>
      </trkpt>
      <trkpt lat="48.69821" lon="2.13093">
        <ele>58</ele>
        <time>2000-01-01T01:32:17.000Z</time>
      </trkpt>
      <trkpt lat="48.69826" lon="2.13128">
        <ele>58</ele>
        <time>2000-01-01T01:32:27.000Z</time>
      </trkpt>
      <trkpt lat="48.69832" lon="2.13167">
        <ele>59</ele>
        <time>2000-01-01T01:32:37.000Z</time>
      </trkpt>
      <trkpt lat="48.69847" lon="2.13218">
        <ele>60</ele>
        <time>2000-01-01T01:32:47.000Z</time>
      </trkpt>
      <trkpt lat="48.69861" lon="2.13268">
        <ele>60</ele>
        <time>2000-01-01T01:32:57.000Z</time>
      </trkpt>
      <trkpt lat="48.69859" lon="2.13321">
        <ele>61</ele>
        <time>2000-01-01T01:33:07.000Z</time>
      </trkpt>
      <trkpt lat="48.6986" lon="2.1335">
        <ele>61</ele>
        <time>2000-01-01T01:33:17.000Z</time>
      </trkpt>
      <trkpt lat="48.69877" lon="2.13374">
        <ele>60</ele>
        <time>2000-01-01T01:33:27.000Z</time>
      </trkpt>
      <trkpt lat="48.69895" lon="2.13398">
        <ele>60</ele>
        <time>2000-01-01T01:33:37.000Z</time>
      </trkpt>
      <trkpt lat="48.69912" lon="2.13441">
        <ele>61</ele>
        <time>2000-01-01T01:33:47.000Z</time>
      </trkpt>
      <trkpt lat="48.6993" lon="2.13476">
        <ele>61</ele>
        <time>2000-01-01T01:33:57.000Z</time>
      </trkpt>
      <trkpt lat="48.69946" lon="2.13504">
        <ele>60</ele>
        <time>2000-01-01T01:34:07.000Z</time>
      </trkpt>
      <trkpt lat="48.69944" lon="2.13535">
        <ele>60</ele>
        <time>2000-01-01T01:34:17.000Z</time>
      </trkpt>
      <trkpt lat="48.69958" lon="2.13556">
        <ele>60</ele>
        <time>2000-01-01T01:34:27.000Z</time>
      </trkpt>
      <trkpt lat="48.69985" lon="2.13572">
        <ele>59</ele>
        <time>2000-01-01T01:34:37.000Z</time>
      </trkpt>
      <trkpt lat="48.69998" lon="2.13596">
        <ele>58</ele>
        <time>2000-01-01T01:34:47.000Z</time>
      </trkpt>
      <trkpt lat="48.69997" lon="2.13615">
        <ele>64</ele>
        <time>2000-01-01T01:34:57.000Z</time>
      </trkpt>
      <trkpt lat="48.70026" lon="2.13611">
        <ele>57</ele>
        <time>2000-01-01T01:35:07.000Z</time>
      </trkpt>
      <trkpt lat="48.70047" lon="2.13632">
        <ele>57</ele>
        <time>2000-01-01T01:35:17.000Z</time>
      </trkpt>
      <trkpt lat="48.70074" lon="2.13659">
        <ele>57</ele>
        <time>2000-01-01T01:35:27.000Z</time>
      </trkpt>
      <trkpt lat="48.70079" lon="2.13695">
        <ele>60</ele>
        <time>2000-01-01T01:35:37.000Z</time>
      </trkpt>
      <trkpt lat="48.70084" lon="2.13738">
        <ele>61</ele>
        <time>2000-01-01T01:35:47.000Z</time>
      </trkpt>
      <trkpt lat="48.70075" lon="2.13764">
        <ele>61</ele>
        <time>2000-01-01T01:35:57.000Z</time>
      </trkpt>
      <trkpt lat="48.70072" lon="2.138">
        <ele>61</ele>
        <time>2000-01-01T01:36:07.000Z</time>
      </trkpt>
      <trkpt lat="48.70047" lon="2.13792">
        <ele>61</ele>
        <time>2000-01-01T01:36:17.000Z</time>
      </trkpt>
      <trkpt lat="48.70015" lon="2.13785">
        <ele>60</ele>
        <time>2000-01-01T01:36:27.000Z</time>
      </trkpt>
      <trkpt lat="48.69975" lon="2.13778">
        <ele>59</ele>
        <time>2000-01-01T01:36:37.000Z</time>
      </trkpt>
      <trkpt lat="48.69963" lon="2.13773">
        <ele>63.3</ele>
        <time>2000-01-01T01:36:47.000Z</time>
      </trkpt>
      <trkpt lat="48.69952" lon="2.13789">
        <ele>59</ele>
        <time>2000-01-01T01:36:57.000Z</time>
      </trkpt>
      <trkpt lat="48.69945" lon="2.1385">
        <ele>59</ele>
        <time>2000-01-01T01:37:07.000Z</time>
      </trkpt>
      <trkpt lat="48.69939" lon="2.13885">
        <ele>59</ele>
        <time>2000-01-01T01:37:17.000Z</time>
      </trkpt>
      <trkpt lat="48.69932" lon="2.13926">
        <ele>58</ele>
        <time>2000-01-01T01:37:27.000Z</time>
      </trkpt>
      <trkpt lat="48.6993" lon="2.1396">
        <ele>58</ele>
        <time>2000-01-01T01:37:37.000Z</time>
      </trkpt>
      <trkpt lat="48.69927" lon="2.13996">
        <ele>58</ele>
        <time>2000-01-01T01:37:47.000Z</time>
      </trkpt>
      <trkpt lat="48.69922" lon="2.14037">
        <ele>58</ele>
        <time>2000-01-01T01:37:57.000Z</time>
      </trkpt>
      <trkpt lat="48.69915" lon="2.14103">
        <ele>57</ele>
        <time>2000-01-01T01:38:07.000Z</time>
      </trkpt>
      <trkpt lat="48.69913" lon="2.14138">
        <ele>56</ele>
        <time>2000-01-01T01:38:17.000Z</time>
      </trkpt>
      <trkpt lat="48.69911" lon="2.14175">
        <ele>56</ele>
        <time>2000-01-01T01:38:27.000Z</time>
      </trkpt>
      <trkpt lat="48.69908" lon="2.14236">
        <ele>56</ele>
        <time>2000-01-01T01:38:37.000Z</time>
      </trkpt>
      <trkpt lat="48.69895" lon="2.14268">
        <ele>56</ele>
        <time>2000-01-01T01:38:47.000Z</time>
      </trkpt>
      <trkpt lat="48.6988" lon="2.14307">
        <ele>56</ele>
        <time>2000-01-01T01:38:57.000Z</time>
      </trkpt>
      <trkpt lat="48.69867" lon="2.1434">
        <ele>56</ele>
        <time>2000-01-01T01:39:07.000Z</time>
      </trkpt>
      <trkpt lat="48.6985" lon="2.14383">
        <ele>55</ele>
        <time>2000-01-01T01:39:17.000Z</time>
      </trkpt>
      <trkpt lat="48.69839" lon="2.14412">
        <ele>56</ele>
        <time>2000-01-01T01:39:27.000Z</time>
      </trkpt>
      <trkpt lat="48.69827" lon="2.14444">
        <ele>56</ele>
        <time>2000-01-01T01:39:37.000Z</time>
      </trkpt>
      <trkpt lat="48.69823" lon="2.14482">
        <ele>56</ele>
        <time>2000-01-01T01:39:47.000Z</time>
      </trkpt>
      <trkpt lat="48.69816" lon="2.14532">
        <ele>56</ele>
        <time>2000-01-01T01:39:57.000Z</time>
      </trkpt>
      <trkpt lat="48.69813" lon="2.1457">
        <ele>60</ele>
        <time>2000-01-01T01:40:07.000Z</time>
      </trkpt>
      <trkpt lat="48.69809" lon="2.14619">
        <ele>60</ele>
        <time>2000-01-01T01:40:17.000Z</time>
      </trkpt>
      <trkpt lat="48.69807" lon="2.14662">
        <ele>60</ele>
        <time>2000-01-01T01:40:27.000Z</time>
      </trkpt>
      <trkpt lat="48.69806" lon="2.14697">
        <ele>59</ele>
        <time>2000-01-01T01:40:37.000Z</time>
      </trkpt>
      <trkpt lat="48.69805" lon="2.14735">
        <ele>58</ele>
        <time>2000-01-01T01:40:47.000Z</time>
      </trkpt>
      <trkpt lat="48.69804" lon="2.14776">
        <ele>58</ele>
        <time>2000-01-01T01:40:57.000Z</time>
      </trkpt>
      <trkpt lat="48.69804" lon="2.14841">
        <ele>57</ele>
        <time>2000-01-01T01:41:07.000Z</time>
      </trkpt>
      <trkpt lat="48.69803" lon="2.14878">
        <ele>57</ele>
        <time>2000-01-01T01:41:17.000Z</time>
      </trkpt>
      <trkpt lat="48.69802" lon="2.14922">
        <ele>55</ele>
        <time>2000-01-01T01:41:27.000Z</time>
      </trkpt>
      <trkpt lat="48.69798" lon="2.1496">
        <ele>54</ele>
        <time>2000-01-01T01:41:37.000Z</time>
      </trkpt>
      <trkpt lat="48.69794" lon="2.15009">
        <ele>53</ele>
        <time>2000-01-01T01:41:47.000Z</time>
      </trkpt>
      <trkpt lat="48.69787" lon="2.15048">
        <ele>53</ele>
        <time>2000-01-01T01:41:57.000Z</time>
      </trkpt>
      <trkpt lat="48.69776" lon="2.15105">
        <ele>52</ele>
        <time>2000-01-01T01:42:07.000Z</time>
      </trkpt>
      <trkpt lat="48.6977" lon="2.15139">
        <ele>52</ele>
        <time>2000-01-01T01:42:17.000Z</time>
      </trkpt>
      <trkpt lat="48.69764" lon="2.15176">
        <ele>52</ele>
        <time>2000-01-01T01:42:27.000Z</time>
      </trkpt>
      <trkpt lat="48.69759" lon="2.15213">
        <ele>52</ele>
        <time>2000-01-01T01:42:37.000Z</time>
      </trkpt>
      <trkpt lat="48.69752" lon="2.1526">
        <ele>53</ele>
        <time>2000-01-01T01:42:47.000Z</time>
      </trkpt>
      <trkpt lat="48.69747" lon="2.153">
        <ele>53</ele>
        <time>2000-01-01T01:42:57.000Z</time>
      </trkpt>
      <trkpt lat="48.69757" lon="2.15321">
        <ele>62.5</ele>
        <time>2000-01-01T01:43:07.000Z</time>
      </trkpt>
      <trkpt lat="48.69785" lon="2.15339">
        <ele>53</ele>
        <time>2000-01-01T01:43:17.000Z</time>
      </trkpt>
      <trkpt lat="48.69796" lon="2.15352">
        <ele>60.9</ele>
        <time>2000-01-01T01:43:27.000Z</time>
      </trkpt>
      <trkpt lat="48.69792" lon="2.15388">
        <ele>53</ele>
        <time>2000-01-01T01:43:37.000Z</time>
      </trkpt>
      <trkpt lat="48.69787" lon="2.15434">
        <ele>53</ele>
        <time>2000-01-01T01:43:47.000Z</time>
      </trkpt>
      <trkpt lat="48.69775" lon="2.15482">
        <ele>54</ele>
        <time>2000-01-01T01:43:57.000Z</time>
      </trkpt>
      <trkpt lat="48.69771" lon="2.15517">
        <ele>54</ele>
        <time>2000-01-01T01:44:07.000Z</time>
      </trkpt>
      <trkpt lat="48.69765" lon="2.15556">
        <ele>54</ele>
        <time>2000-01-01T01:44:17.000Z</time>
      </trkpt>
      <trkpt lat="48.69772" lon="2.15611">
        <ele>54</ele>
        <time>2000-01-01T01:44:27.000Z</time>
      </trkpt>
      <trkpt lat="48.6978" lon="2.15647">
        <ele>53</ele>
        <time>2000-01-01T01:44:37.000Z</time>
      </trkpt>
      <trkpt lat="48.69792" lon="2.15698">
        <ele>52</ele>
        <time>2000-01-01T01:44:47.000Z</time>
      </trkpt>
      <trkpt lat="48.69803" lon="2.15744">
        <ele>50</ele>
        <time>2000-01-01T01:44:57.000Z</time>
      </trkpt>
      <trkpt lat="48.69818" lon="2.15803">
        <ele>50</ele>
        <time>2000-01-01T01:45:07.000Z</time>
      </trkpt>
      <trkpt lat="48.6979" lon="2.15837">
        <ele>50</ele>
        <time>2000-01-01T01:45:17.000Z</time>
      </trkpt>
      <trkpt lat="48.69764" lon="2.15857">
        <ele>51</ele>
        <time>2000-01-01T01:45:27.000Z</time>
      </trkpt>
      <trkpt lat="48.69737" lon="2.15883">
        <ele>51</ele>
        <time>2000-01-01T01:45:37.000Z</time>
      </trkpt>
      <trkpt lat="48.69713" lon="2.15902">
        <ele>52</ele>
        <time>2000-01-01T01:45:47.000Z</time>
      </trkpt>
      <trkpt lat="48.69698" lon="2.159">
        <ele>62.3</ele>
        <time>2000-01-01T01:45:57.000Z</time>
      </trkpt>
      <trkpt lat="48.69698" lon="2.159">
        <ele>55</ele>
        <time>2000-01-01T01:46:07.000Z</time>
      </trkpt>
    </trkseg>
  </trk>
</gpx>